Tiempo atmosférico en la estación meteorológica de La Orotava, Cañadas Teide, Santa Cruz de Tenerife (2150 m.)



Fecha
DESCASC
Temp. máxima en grados centígrados (hora)
DESCASC
Temp. mínima en grados centígrados (hora)
DESCASC
Temp. media en grados centígrados
DESCASC
Racha de viento máxima en m/sg (hora)
DESCASC
Velocidad máxima media en intervalos de 10 minutos(hora)
DESCASC
Precipitaciones diarias en mm
DESCASC
Precipitaciones de 00:00 a 06:00 en mm
DESCASC
Precipitaciones de 06:00 a 12:00 en mm
DESCASC
Precipitaciones de 12:00 a 18:00 en mm
DESCASC
Precipitaciones de 18:00 a 24:00 en mm
DESCASC
23-06-2019 21.6 (14:50) 6.5 (07:00) 14.1 13.06 (15:00) 7.22 (12:00) 0 0 0 0 0
22-06-2019 23.4 (15:40) 9.4 (05:00) 16.4 10.83 (16:20) 5.56 (14:40) 0 0 0 0 0
21-06-2019 23.8 (14:00) 8.5 (06:10) 16.1 13.06 (12:10) 8.61 (12:40) 0 0 0 0 0
20-06-2019 23 (14:20) 5.6 (00:00) 14.3 18.89 (16:50) 10.56 (15:20) 0 0 0 0 0
19-06-2019 23.2 (17:50) 10.7 (00:00) 17 11.67 (18:40) 6.11 (10:20) 0 0 0 0 0
18-06-2019 21.7 (14:20) 12.9 (00:00) 17.3 12.5 (16:40) 6.39 (16:30) 0 0 0 0 0
17-06-2019 22 (17:30) 12 (00:00) 17 14.17 (18:10) 8.33 (18:10) 0 0 0 0 0
16-06-2019 20.3 (16:00) 8.3 (00:00) 14.3 14.44 (16:40) 6.67 (16:50) 0 0 0 0 0
15-06-2019 19.8 (15:00) 4.4 (00:00) 12.1 8.61 (14:00) 5 (15:40) 0 0 0 0 0
14-06-2019 21 (15:50) 3.5 (00:00) 12.3 10.28 (18:00) 6.11 (19:20) 0 0 0 0 0
13-06-2019 20.6 (14:50) 4.5 (00:00) 12.6 10.28 (12:10) 5 (15:00) 0 0 0 0 0
12-06-2019 21.5 (12:50) 8.9 (00:00) 15.2 12.5 (00:20) 8.61 (00:20) 0 0 0 0 0
11-06-2019 24.8 (14:50) 10.8 (00:00) 17.8 15 (22:50) 10.28 (23:00) 0 0 0 0 0
10-06-2019 24.1 (15:50) 6.4 (00:00) 15.3 14.17 (23:50) 8.06 (17:40) 0 0 0 0 0
09-06-2019 23.9 (13:50) 7.2 (00:00) 15.5 11.67 (18:00) 6.39 (21:20) 0 0 0 0 0
08-06-2019 21.3 (15:20) 5.2 (00:00) 13.2 10 (14:30) 5 (18:50) 0 0 0 0 0
07-06-2019 20.6 (12:10) 6.2 (00:00) 13.4 9.72 (17:00) 5.56 (04:50) 0 0 0 0 0
06-06-2019 22.9 (14:50) 6.9 (00:00) 14.9 10.56 (17:50) 6.39 (04:40) 0 0 0 0 0
05-06-2019 21.2 (15:30) 7.1 (00:00) 14.2 15 (12:00) 8.89 (12:30) 0 0 0 0 0
04-06-2019 21.1 (14:00) 9 (00:00) 15.1 11.94 (16:30) 6.11 (16:10) 0 0 0 0 0
03-06-2019 23.1 (13:30) 13.5 (00:00) 18.3 13.06 (13:20) 8.33 (09:40) 0 0 0 0 0
02-06-2019 24.1 (14:40) 12.8 (00:00) 18.5 11.94 (17:10) 6.67 (11:40) 0 0 0 0 0
01-06-2019 24.8 (14:10) 13.1 (00:00) 18.9 11.11 (15:50) 5.56 (15:40) 0 0 0 0 0
31-05-2019 23.4 (15:20) 8.8 (00:00) 16.1 11.39 (13:30) 6.11 (13:50) 0 0 0 0 0
30-05-2019 23.7 (14:10) 7.9 (00:00) 15.8 9.72 (14:20) 6.11 (17:50) 0 0 0 0 0
29-05-2019 24.7 (13:50) 8.5 (00:00) 16.6 10 (12:50) 5.28 (17:00) 0 0 0 0 0
28-05-2019 22.9 (14:50) 6.9 (00:00) 14.9 9.72 (08:00) 6.39 (08:00) 0 0 0 0 0
27-05-2019 20.7 (18:10) 8.7 (00:00) 14.7 9.72 (14:10) 6.39 (08:00) 0 0 0 0 0
26-05-2019 22.9 (13:00) 8.2 (00:00) 15.5 8.89 (01:40) 5.83 (01:40) 0 0 0 0 0

Gráficas

Temp. máximas Temp. mínimas Temp. medias Precipitaciones Rachas de viento máximas Velocidades máximas media en intervalos de 10 minutos

Datos horarios

Fecha y hora oficial Temperatura (ºC) Velocidad del viento (km/h) Dirección del viento Racha (km/h) Dirección de racha Precipitación (mm) Presión (hPa) Tendencia (hPa) Humedad (%)
2019-06-24 23:00:00 -- -- -- -- -- -- -- -- --
2019-06-24 22:00:00 -- -- -- -- -- -- -- -- --
2019-06-24 21:00:00 -- -- -- -- -- -- -- -- --
2019-06-24 20:00:00 -- -- -- -- -- -- -- -- --
2019-06-24 19:00:00 -- -- -- -- -- -- -- -- --
2019-06-24 18:00:00 21.6 9 Sudoeste 31 Oeste 0 -- -- 24
2019-06-24 17:00:00 21.6 15 Sudoeste 32 Sudoeste 0 -- -- 22
2019-06-24 16:00:00 21.7 15 Oeste 32 Oeste 0 -- -- 25
2019-06-24 15:00:00 21.3 17 Oeste 39 Oeste 0 -- -- 26
2019-06-24 14:00:00 21.3 16 Sudoeste 39 Sudoeste 0 -- -- 26
2019-06-24 13:00:00 20.7 21 Sur 43 Sudoeste 0 -- -- 27
2019-06-24 12:00:00 20.6 20 Sur 39 Sudoeste 0 -- -- 25
2019-06-24 11:00:00 19.7 9 Oeste 29 Sur 0 -- -- 33
2019-06-24 10:00:00 18.5 13 Sudoeste 27 Sudoeste 0 -- -- 34
2019-06-24 09:00:00 17.1 10 Sur 17 Sudoeste 0 -- -- 35
2019-06-24 08:00:00 14.2 10 Sudoeste 14 Sudoeste 0 -- -- 46
2019-06-24 07:00:00 14 9 Sur 16 Sudoeste 0 -- -- 47
2019-06-24 06:00:00 14 8 Sur 13 Sudoeste 0 -- -- 46
2019-06-24 05:00:00 12.2 5 Sur 8 Sur 0 -- -- 53
2019-06-24 04:00:00 9.8 2 Noroeste 8 Norte 0 -- -- 62
2019-06-24 03:00:00 10.2 2 Norte 13 Sudoeste 0 -- -- 59
2019-06-24 02:00:00 14.1 8 Sudoeste 22 Sur 0 -- -- 52
2019-06-24 01:00:00 14.5 10 Sur 19 Sudoeste 0 -- -- 49
2019-06-24 00:00:00 14.4 10 Sur 31 Sur 0 -- -- 53
2019-06-23 23:00:00 15.1 17 Sur 35 Sudoeste 0 -- -- 51
2019-06-23 22:00:00 16.2 21 Sur 35 Sur 0 -- -- 44
2019-06-23 21:00:00 17 19 Sur 40 Sur 0 -- -- 45
2019-06-23 20:00:00 18.9 19 Sur 41 Sudoeste 0 -- -- 37
2019-06-23 19:00:00 19.9 15 Sudoeste 35 Sur 0 -- -- 40
2019-06-23 18:00:00 20.3 17 Sudoeste 35 Sudoeste 0 -- -- 39
2019-06-23 17:00:00 20.4 13 Oeste 30 Oeste 0 -- -- 38
2019-06-23 16:00:00 20.5 13 Oeste 33 Oeste 0 -- -- 38
2019-06-23 15:00:00 21.5 18 Sudoeste 47 Sudoeste 0 -- -- 23
2019-06-23 14:00:00 21.3 15 Sudoeste 36 Sur 0 -- -- 21
2019-06-23 13:00:00 20.9 16 Sur 44 Sudoeste 0 -- -- 26
2019-06-23 12:00:00 21 26 Sudoeste 44 Sudoeste 0 -- -- 20
2019-06-23 11:00:00 19.6 12 Sudoeste 27 Sudoeste 0 -- -- 24
2019-06-23 10:00:00 17.7 6 Sur 12 Sur 0 -- -- 23
2019-06-23 09:00:00 15 9 Este 16 Nordeste 0 -- -- 29
2019-06-23 08:00:00 9.7 5 Nordeste 13 Este 0 -- -- 45
2019-06-23 07:00:00 6.5 6 Norte 10 Norte 0 -- -- 49
2019-06-23 06:00:00 8.1 5 Nordeste 13 Norte 0 -- -- 44
2019-06-23 05:00:00 9 4 Nordeste 12 Norte 0 -- -- 39
2019-06-23 04:00:00 9.2 5 Nordeste 18 Este 0 -- -- 32
2019-06-23 03:00:00 10 8 Nordeste 18 Este 0 -- -- 30
2019-06-23 02:00:00 9.7 10 Norte 16 Este 0 -- -- 29
2019-06-23 01:00:00 12.3 11 Nordeste 14 Nordeste 0 -- -- 26
2019-06-23 00:00:00 13.8 6 Este 16 Este 0 -- -- 32
2019-06-22 23:00:00 13.5 12 Este 16 Este 0 -- -- 35
2019-06-22 22:00:00 14.6 0 Calma 10 Oeste 0 -- -- 39
2019-06-22 21:00:00 16.1 8 Oeste 18 Sudoeste 0 -- -- 42
2019-06-22 20:00:00 18.6 13 Oeste 21 Oeste 0 -- -- 41
2019-06-22 19:00:00 21.2 12 Sur 26 Sudoeste 0 -- -- 33
2019-06-22 18:00:00 22.1 11 Sudoeste 31 Sur 0 -- -- 36
2019-06-22 17:00:00 21.7 14 Sudoeste 39 Sudoeste 0 -- -- 33
2019-06-22 16:00:00 22.6 15 Sudoeste 29 Sudoeste 0 -- -- 32
2019-06-22 15:00:00 22.4 17 Sur 33 Sur 0 -- -- 31
2019-06-22 14:00:00 22.5 16 Sudoeste 31 Sur 0 -- -- 30
2019-06-22 13:00:00 21.5 13 Sudoeste 30 Sur 0 -- -- 27
2019-06-22 12:00:00 21.7 12 Sur 25 Oeste 0 -- -- 24
2019-06-22 11:00:00 19.2 9 Oeste 18 Oeste 0 -- -- 22
2019-06-22 10:00:00 17.3 7 Oeste 12 Sudoeste 0 -- -- 23
2019-06-22 09:00:00 16.3 4 Sur 24 Este 0 -- -- 24
2019-06-22 08:00:00 13.1 13 Este 23 Este 0 -- -- 28
2019-06-22 07:00:00 11.3 7 Este 19 Este 0 -- -- 30
2019-06-22 06:00:00 11.1 12 Este 18 Nordeste 0 -- -- 29
2019-06-22 05:00:00 9.4 9 Nordeste 22 Este 0 -- -- 32
2019-06-22 04:00:00 12.4 15 Este 22 Este 0 -- -- 26
2019-06-22 03:00:00 11 6 Nordeste 21 Este 0 -- -- 30
2019-06-22 02:00:00 10.2 8 Nordeste 12 Nordeste 0 -- -- 32
2019-06-22 01:00:00 9.9 3 Nordeste 14 Nordeste 0 -- -- 33
2019-06-22 00:00:00 11.4 6 Norte 10 Nordeste 0 -- -- 33
2019-06-21 23:00:00 14.4 4 Sur 20 Este 0 -- -- 34
2019-06-21 22:00:00 15.3 4 Sudeste 24 Este 0 -- -- 32
2019-06-21 21:00:00 17.6 6 Sudeste 20 Este 0 -- -- 28
2019-06-21 20:00:00 20.5 9 Sudoeste 24 Sudoeste 0 -- -- 27
2019-06-21 19:00:00 21.9 13 Sur 23 Sur 0 -- -- 28
2019-06-21 18:00:00 21.6 10 Sur 25 Sudeste 0 -- -- 25
2019-06-21 17:00:00 23.3 15 Sudeste 36 Este 0 -- -- 27
2019-06-21 16:00:00 22.3 22 Sudeste 39 Este 0 -- -- 22
2019-06-21 15:00:00 22.8 26 Este 45 Este 0 -- -- 18
2019-06-21 14:00:00 23.8 22 Sudeste 42 Sudeste 0 -- -- 18
2019-06-21 13:00:00 23.2 26 Sudeste 47 Sur 0 -- -- 17
2019-06-21 12:00:00 23 26 Sur 47 Sudoeste 0 -- -- 17
2019-06-21 11:00:00 21.6 20 Sudoeste 37 Sur 0 -- -- 15
2019-06-21 10:00:00 18.8 8 Sur 22 Nordeste 0 -- -- 23
2019-06-21 09:00:00 16.1 9 Este 24 Este 0 -- -- 27
2019-06-21 08:00:00 10.4 17 Nordeste 24 Este 0 -- -- 36
2019-06-21 07:00:00 9.4 8 Norte 17 Este 0 -- -- 40
2019-06-21 06:00:00 9.2 4 Nordeste 17 Norte 0 -- -- 40
2019-06-21 05:00:00 10.3 7 Este 17 Este 0 -- -- 32
2019-06-21 04:00:00 9.6 7 Norte 14 Norte 0 -- -- 35
2019-06-21 03:00:00 9.5 6 Norte 24 Este 0 -- -- 37
2019-06-21 02:00:00 11.7 12 Nordeste 22 Este 0 -- -- 33
2019-06-21 01:00:00 11.5 15 Este 27 Este 0 -- -- 32
2019-06-21 00:00:00 12.5 16 Este 24 Este 0 -- -- 33
2019-06-20 23:00:00 13.7 9 Nordeste 15 Este 0 -- -- 29
2019-06-20 22:00:00 16.1 3 Sudeste 14 Sudoeste 0 -- -- 23
2019-06-20 21:00:00 17.8 6 Sur 32 Sudoeste 0 -- -- 22
2019-06-20 20:00:00 20.4 24 Sur 55 Sur 0 -- -- 19
2019-06-20 19:00:00 21.3 32 Sudoeste 55 Sudoeste 0 -- -- 19
2019-06-20 18:00:00 21.5 32 Sur 54 Sur 0 -- -- 17
2019-06-20 17:00:00 21.9 28 Sudoeste 68 Sudoeste 0 -- -- 19
2019-06-20 16:00:00 21.7 36 Sur 66 Sudoeste 0 -- -- 21
2019-06-20 15:00:00 22.5 30 Sur 62 Sudoeste 0 -- -- 17
2019-06-20 14:00:00 22.7 20 Sudoeste 53 Sudoeste 0 -- -- 10
2019-06-20 13:00:00 21.4 21 Sur 48 Sudoeste 0 -- -- 9
2019-06-20 12:00:00 21.5 14 Sudoeste 33 Sur 0 -- -- 8
2019-06-20 11:00:00 20.4 15 Sur 42 Sudoeste 0 -- -- 6
2019-06-20 10:00:00 19.2 6 Sudeste 20 Sudoeste 0 -- -- 6
2019-06-20 09:00:00 16.9 8 Sur 13 Sur 0 -- -- 4
2019-06-20 08:00:00 8.4 0 Calma 6 Norte 0 -- -- 14
2019-06-20 07:00:00 7.9 2 Noroeste 7 Sudoeste 0 -- -- 13
2019-06-20 06:00:00 6 3 Norte 11 Noroeste 0 -- -- 15
2019-06-20 05:00:00 8.1 5 Nordeste 12 Noroeste 0 -- -- 14
2019-06-20 04:00:00 7.9 3 Norte 9 Noroeste 0 -- -- 13
2019-06-20 03:00:00 8.6 6 Norte 11 Noroeste 0 -- -- 14
2019-06-20 02:00:00 9.1 0 Calma 10 Norte 0 -- -- 14
2019-06-20 01:00:00 11.1 3 Sudoeste 8 Norte 0 -- -- 12
2019-06-20 00:00:00 10.7 4 Nordeste 12 Nordeste 0 -- -- 12
2019-06-19 23:00:00 11.8 5 Norte 22 Este 0 -- -- 11
2019-06-19 22:00:00 15 8 Nordeste 26 Sudoeste 0 -- -- 8
2019-06-19 21:00:00 18.4 18 Sur 32 Sur 0 -- -- 7
2019-06-19 20:00:00 21.1 10 Sudoeste 35 Sur 0 -- -- 10
2019-06-19 19:00:00 22.3 9 Oeste 42 Sudoeste 0 -- -- 9
2019-06-19 18:00:00 23.1 13 Oeste 33 Oeste 0 -- -- 9
2019-06-19 17:00:00 22.4 19 Sudoeste 37 Sur 0 -- -- 13
2019-06-19 16:00:00 22.8 15 Sudoeste 42 Sudoeste 0 -- -- 10
2019-06-19 15:00:00 22.9 15 Sudoeste 38 Oeste 0 -- -- 10
2019-06-19 14:00:00 22.5 14 Sudoeste -- -- -- -- -- 10
2019-06-19 13:00:00 -- -- -- -- -- -- -- -- --
2019-06-19 12:00:00 -- -- -- -- -- -- -- -- --
2019-06-19 11:00:00 -- -- -- -- -- -- -- -- --
2019-06-19 10:00:00 -- -- -- -- -- -- -- -- --
2019-06-19 09:00:00 -- -- -- -- -- -- -- -- --
2019-06-19 08:00:00 -- -- -- -- -- -- -- -- --
2019-06-19 07:00:00 -- -- -- -- -- -- -- -- --
2019-06-19 06:00:00 -- -- -- -- -- -- -- -- --
2019-06-19 05:00:00 -- -- -- -- -- -- -- -- --
2019-06-19 04:00:00 -- -- -- -- -- -- -- -- --
2019-06-19 03:00:00 -- -- -- -- -- -- -- -- --
2019-06-19 02:00:00 -- -- -- -- -- -- -- -- --
2019-06-19 01:00:00 -- -- -- -- -- -- -- -- --
2019-06-19 00:00:00 -- -- -- -- -- -- -- -- --
2019-06-18 23:00:00 -- -- -- -- -- -- -- -- --
2019-06-18 22:00:00 -- -- -- -- -- -- -- -- --
2019-06-18 21:00:00 -- -- -- -- -- -- -- -- --
2019-06-18 20:00:00 -- -- -- -- -- -- -- -- --
2019-06-18 19:00:00 -- -- -- -- -- -- -- -- --
2019-06-18 18:00:00 19.7 18 Oeste 39 Oeste 0 -- -- 31
2019-06-18 17:00:00 20 18 Oeste 45 Oeste 0 -- -- 26
2019-06-18 16:00:00 20.4 22 Oeste 39 Noroeste 0 -- -- 26
2019-06-18 15:00:00 21.6 13 Sudoeste 43 Oeste 0 -- -- 24
2019-06-18 14:00:00 21 17 Oeste 35 Oeste 0 -- -- 22
2019-06-18 13:00:00 21 15 Oeste 33 Oeste 0 -- -- 19
2019-06-18 12:00:00 20.3 16 Sudoeste 35 Oeste 0 -- -- 14
2019-06-18 11:00:00 19.2 13 Sudoeste 29 Oeste 0 -- -- 11
2019-06-18 10:00:00 17.4 14 Sur 33 Sur 0 -- -- 21
2019-06-18 09:00:00 15.3 16 Sur 30 Sur 0 -- -- 51
2019-06-18 08:00:00 14 12 Sur 15 Sur 0 -- -- 56
2019-06-18 07:00:00 13.3 8 Sur 19 Sur 0 -- -- 56
2019-06-18 06:00:00 13.7 11 Sur 24 Sudoeste 0 -- -- 54
2019-06-18 05:00:00 14.1 10 Sur 17 Sudoeste 0 -- -- 51
2019-06-18 04:00:00 14.5 7 Sur 17 Sudoeste 0 -- -- 48
2019-06-18 03:00:00 14.6 8 Sur 20 Sudoeste 0 -- -- 41
2019-06-18 02:00:00 15.5 13 Sur 18 Sudoeste 0 -- -- 38
2019-06-18 01:00:00 15.6 12 Sur 30 Sur 0 -- -- 35
2019-06-18 00:00:00 16 13 Sur 22 Sudoeste 0 -- -- 34
2019-06-17 23:00:00 15.9 9 Sur 23 Sudoeste 0 -- -- 34
2019-06-17 22:00:00 16.9 15 Sudoeste 29 Sur 0 -- -- 34
2019-06-17 21:00:00 17.2 11 Sudoeste 38 Sudoeste 0 -- -- 26
2019-06-17 20:00:00 19.8 24 Sudoeste 44 Sur 0 -- -- 21
2019-06-17 19:00:00 20.8 24 Sudoeste 51 Sudoeste 0 -- -- 24
2019-06-17 18:00:00 21.2 24 Sudoeste 44 Sudoeste 0 -- -- 27
2019-06-17 17:00:00 20.7 21 Sur 45 Sur 0 -- -- 31
2019-06-17 16:00:00 20.2 13 Sudoeste 34 Oeste 0 -- -- 34
2019-06-17 15:00:00 19.9 15 Sudoeste 36 Sudoeste 0 -- -- 34
2019-06-17 14:00:00 19.7 15 Sudoeste 34 Oeste 0 -- -- 26
2019-06-17 13:00:00 18.8 16 Oeste 40 Sudoeste 0 -- -- 28
2019-06-17 12:00:00 18.4 12 Sudoeste 44 Sur 0 -- -- 29
2019-06-17 11:00:00 17.2 30 Sur 48 Sudoeste 0 -- -- 27
2019-06-17 10:00:00 15.9 22 Sur 40 Sudoeste 0 -- -- 32
2019-06-17 09:00:00 15.2 9 Sur 28 Sudoeste 0 -- -- 27
2019-06-17 08:00:00 13.1 12 Sur 22 Sur 0 -- -- 29
2019-06-17 07:00:00 12.5 9 Sur 25 Sur 0 -- -- 30
2019-06-17 06:00:00 12.5 10 Sur 36 Sur 0 -- -- 30
2019-06-17 05:00:00 12.5 17 Sur 35 Sur 0 -- -- 34
2019-06-17 04:00:00 12.6 17 Sur 24 Sur 0 -- -- 35
2019-06-17 03:00:00 13.2 14 Sur 22 Sur 0 -- -- 29
2019-06-17 02:00:00 13.4 12 Sudoeste 21 Sudoeste 0 -- -- 27
2019-06-17 01:00:00 13.3 13 Sudoeste 19 Sudoeste 0 -- -- 26
2019-06-17 00:00:00 15.1 15 Sudoeste 31 Sudoeste 0 -- -- 24
2019-06-16 23:00:00 15.4 11 Sur 24 Sudoeste 0 -- -- 20
2019-06-16 22:00:00 15.7 15 Sur 29 Sur 0 -- -- 18
2019-06-16 21:00:00 16 12 Sudoeste 29 Oeste 0 -- -- 20
2019-06-16 20:00:00 17.8 10 Oeste 40 Sudoeste 0 -- -- 24
2019-06-16 19:00:00 19.4 16 Sur 37 Sudoeste 0 -- -- 21
2019-06-16 18:00:00 19.8 14 Sudoeste 36 Sudoeste 0 -- -- 22
2019-06-16 17:00:00 19.8 18 Sudoeste 52 Sur 0 -- -- 24
2019-06-16 16:00:00 20.3 17 Sudoeste 40 Oeste 0 -- -- 26
2019-06-16 15:00:00 19.4 18 Oeste 39 Sudoeste 0 -- -- 25
2019-06-16 14:00:00 19.5 19 Sudoeste 44 Sur 0 -- -- 27
2019-06-16 13:00:00 19.4 11 Oeste 27 Sudoeste 0 -- -- 27
2019-06-16 12:00:00 18.5 14 Sudoeste 29 Oeste 0 -- -- 27
2019-06-16 11:00:00 17.7 12 Sudoeste 28 Sudoeste 0 -- -- 22
2019-06-16 10:00:00 16.4 12 Oeste 22 Sudoeste 0 -- -- 14
2019-06-16 09:00:00 15.3 8 Sur 14 Sur 0 -- -- 11
2019-06-16 08:00:00 9.1 3 Norte 10 Sudoeste 0 -- -- 15
2019-06-16 07:00:00 9.1 5 Sudoeste 20 Sudoeste 0 -- -- 13
2019-06-16 06:00:00 12.1 12 Sudoeste 19 Sur 0 -- -- 9
2019-06-16 05:00:00 11.7 9 Sur 19 Sudoeste 0 -- -- 10
2019-06-16 04:00:00 12 8 Sur 12 Sudoeste 0 -- -- 7
2019-06-16 03:00:00 11.9 9 Sur 13 Sur 0 -- -- 9
2019-06-16 02:00:00 11.5 5 Sudoeste 9 Sur 0 -- -- 12
2019-06-16 01:00:00 12.4 5 Sudoeste 12 Sur 0 -- -- 9
2019-06-16 00:00:00 12.7 7 Sur 11 Sur 0 -- -- 10
2019-06-15 23:00:00 13.1 7 Sur 16 Sur 0 -- -- 11
2019-06-15 22:00:00 13.7 6 Sur 15 Sudoeste 0 -- -- 12
2019-06-15 21:00:00 14.4 8 Oeste 22 Sudoeste 0 -- -- 12
2019-06-15 20:00:00 17 11 Oeste 29 Noroeste 0 -- -- 10
2019-06-15 19:00:00 18.4 15 Oeste 24 Oeste 0 -- -- 10
2019-06-15 18:00:00 18.4 14 Oeste 31 Oeste 0 -- -- 12
2019-06-15 17:00:00 19.4 15 Oeste 30 Oeste 0 -- -- 10
2019-06-15 16:00:00 19.2 15 Oeste 29 Oeste 0 -- -- 8
2019-06-15 15:00:00 19.8 11 Oeste 31 Oeste 0 -- -- 9
2019-06-15 14:00:00 18.8 17 Oeste 31 Oeste 0 -- -- 11
2019-06-15 13:00:00 19.1 14 Oeste 23 Oeste 0 -- -- 11
2019-06-15 12:00:00 19.1 10 Sudoeste 26 Sudoeste 0 -- -- 13
2019-06-15 11:00:00 18.1 9 Sudoeste 19 Sur 0 -- -- 12
2019-06-15 10:00:00 15.7 8 Oeste 12 Oeste 0 -- -- 13
2019-06-15 09:00:00 13.9 4 Sudoeste 6 Sudeste 0 -- -- 15
2019-06-15 08:00:00 6.7 2 Norte 11 Norte 0 -- -- 22
2019-06-15 07:00:00 5 3 Nordeste 9 Nordeste 0 -- -- 23
2019-06-15 06:00:00 5 4 Norte 8 Norte 0 -- -- 22
2019-06-15 05:00:00 7.8 4 Nordeste 8 Nordeste 0 -- -- 20
2019-06-15 04:00:00 7.3 4 Nordeste 8 Nordeste 0 -- -- 20
2019-06-15 03:00:00 8.7 4 Nordeste 8 Norte 0 -- -- 18
2019-06-15 02:00:00 7.2 6 Norte 10 Norte 0 -- -- 16
2019-06-15 01:00:00 8.3 5 Norte 18 Nordeste 0 -- -- 16
2019-06-15 00:00:00 10.7 14 Este 17 Este 0 -- -- 11
2019-06-14 23:00:00 11.2 10 Este 21 Este 0 -- -- 11
2019-06-14 22:00:00 12.7 15 Este 26 Nordeste 0 -- -- 10
2019-06-14 21:00:00 15.6 6 Sur 29 Sur 0 -- -- 13
2019-06-14 20:00:00 18.2 21 Sudoeste 32 Sudoeste 0 -- -- 13
2019-06-14 19:00:00 19.3 18 Sudoeste 36 Sudoeste 0 -- -- 15
2019-06-14 18:00:00 19.7 16 Sudoeste 37 Sudoeste 0 -- -- 18
2019-06-14 17:00:00 20.7 13 Sudoeste 32 Sudoeste 0 -- -- 13
2019-06-14 16:00:00 20.3 15 Sudoeste 29 Sur 0 -- -- 15
2019-06-14 15:00:00 18.4 17 Oeste 33 Oeste 0 -- -- 20
2019-06-14 14:00:00 19.6 15 Sudoeste 33 Sudoeste 0 -- -- 13
2019-06-14 13:00:00 19.1 10 Oeste 24 Sur 0 -- -- 17
2019-06-14 12:00:00 18.2 13 Sur 24 Sudoeste 0 -- -- 20
2019-06-14 11:00:00 17.8 10 Sudoeste 18 Sur 0 -- -- 18
2019-06-14 10:00:00 14.3 5 Oeste 10 Oeste 0 -- -- 15
2019-06-14 09:00:00 13.5 3 Nordeste 8 Nordeste 0 -- -- 19
2019-06-14 08:00:00 6.8 5 Nordeste 12 Norte 0 -- -- 32
2019-06-14 07:00:00 3.7 4 Norte 8 Norte 0 -- -- 34
2019-06-14 06:00:00 5.5 0 Calma 11 Norte 0 -- -- 34
2019-06-14 05:00:00 5.4 4 Norte 15 Este 0 -- -- 32
2019-06-14 04:00:00 7.3 12 Nordeste 16 Nordeste 0 -- -- 30
2019-06-14 03:00:00 5.7 5 Nordeste 12 Nordeste 0 -- -- 33
2019-06-14 02:00:00 7.5 5 Norte 13 Este 0 -- -- 31
2019-06-14 01:00:00 7.9 3 Nordeste 14 Este 0 -- -- 31
2019-06-14 00:00:00 10.2 8 Este 14 Nordeste 0 -- -- 29
2019-06-13 23:00:00 11.3 2 Este 14 Este 0 -- -- 29
2019-06-13 22:00:00 12.7 9 Este 15 Este 0 -- -- 25
2019-06-13 21:00:00 14.9 4 Nordeste 13 Noroeste 0 -- -- 19
2019-06-13 20:00:00 19.1 5 Oeste 17 Oeste 0 -- -- 20
2019-06-13 19:00:00 17.8 10 Noroeste 23 Oeste 0 -- -- 23
2019-06-13 18:00:00 18.1 13 Oeste 29 Noroeste 0 -- -- 27
2019-06-13 17:00:00 18.2 12 Oeste 28 Oeste 0 -- -- 35
2019-06-13 16:00:00 19.1 13 Oeste 27 Sudoeste 0 -- -- 32
2019-06-13 15:00:00 19.4 18 Sudoeste 33 Sudoeste 0 -- -- 27
2019-06-13 14:00:00 18.5 14 Sudoeste 32 Sudoeste 0 -- -- 22
2019-06-13 13:00:00 18.8 14 Sudoeste 37 Sudoeste 0 -- -- 24
2019-06-13 12:00:00 18.8 14 Sudeste 31 Sur 0 -- -- 19
2019-06-13 11:00:00 16.5 10 Oeste 19 Oeste 0 -- -- 19
2019-06-13 10:00:00 15.2 5 Sur 13 Este 0 -- -- 19
2019-06-13 09:00:00 12.7 6 Este 18 Este 0 -- -- 30
2019-06-13 08:00:00 7.8 10 Este 27 Este 0 -- -- 41
2019-06-13 07:00:00 7 11 Nordeste 23 Este 0 -- -- 41
2019-06-13 06:00:00 5.4 4 Norte 16 Nordeste 0 -- -- 43
2019-06-13 05:00:00 5.9 6 Nordeste 17 Este 0 -- -- 42
2019-06-13 04:00:00 8.2 17 Este 22 Nordeste 0 -- -- 38
2019-06-13 03:00:00 9 10 Este 17 Este 0 -- -- 31
2019-06-13 02:00:00 7.5 3 Este 10 Nordeste 0 -- -- 25
2019-06-13 01:00:00 7.4 6 Nordeste 12 Nordeste 0 -- -- 22
2019-06-13 00:00:00 8.9 5 Nordeste 21 Este 0 -- -- 16
2019-06-12 23:00:00 10.5 11 Este 29 Este 0 -- -- 15
2019-06-12 22:00:00 11.7 21 Este 28 Este 0 -- -- 14
2019-06-12 21:00:00 13.5 13 Este 36 Sudoeste 0 -- -- 22
2019-06-12 20:00:00 17.1 22 Sudoeste 42 Sudoeste 0 -- -- 17
2019-06-12 19:00:00 18 13 Sudeste 24 Sudeste 0 -- -- 32
2019-06-12 18:00:00 19.4 16 Sur 25 Sur 0 -- -- 28
2019-06-12 17:00:00 19.8 15 Sudeste 39 Sur 0 -- -- 24
2019-06-12 16:00:00 20.2 18 Sur 41 Este 0 -- -- 32
2019-06-12 15:00:00 19.3 12 Sudoeste 34 Este 0 -- -- 32
2019-06-12 14:00:00 19.7 20 Sudeste 42 Sudeste 0 -- -- 22
2019-06-12 13:00:00 20.8 27 Sur 41 Sur 0 -- -- 24
2019-06-12 12:00:00 19.7 12 Sur 32 Este 0 -- -- 24
2019-06-12 11:00:00 17.9 17 Este 25 Este 0 -- -- 29
2019-06-12 10:00:00 15.8 16 Este 26 Este 0 -- -- 34
2019-06-12 09:00:00 14.3 15 Este 25 Este 0 -- -- 32
2019-06-12 08:00:00 11.6 13 Este 25 Este 0 -- -- 39
2019-06-12 07:00:00 10.6 14 Este 22 Este 0 -- -- 42
2019-06-12 06:00:00 10 10 Nordeste 22 Este 0 -- -- 42
2019-06-12 05:00:00 11.4 19 Este 26 Sudeste 0 -- -- 39
2019-06-12 04:00:00 12.3 9 Este 41 Este 0 -- -- 36
2019-06-12 03:00:00 11.7 17 Nordeste 40 Nordeste 0 -- -- 40
2019-06-12 02:00:00 12.5 26 Este 40 Este 0 -- -- 38
2019-06-12 01:00:00 13.5 8 Nordeste 45 Este 0 -- -- 30
2019-06-12 00:00:00 13.8 31 Este 53 Este 0 -- -- 31
2019-06-11 23:00:00 14.3 37 Este 54 Este 0 -- -- 30
2019-06-11 22:00:00 14.9 35 Nordeste 48 Nordeste 0 -- -- 29
2019-06-11 21:00:00 16.2 31 Nordeste 48 Nordeste 0 -- -- 26
2019-06-11 20:00:00 19.6 21 Nordeste 34 Nordeste 0 -- -- 22
2019-06-11 19:00:00 22.1 13 Nordeste 28 Sudeste 0 -- -- 20
2019-06-11 18:00:00 22.8 15 Sur 32 Sudoeste 0 -- -- 23
2019-06-11 17:00:00 22.5 19 Sur 35 Sur 0 -- -- 20
2019-06-11 16:00:00 23.4 15 Sur 35 Sudeste 0 -- -- 18
2019-06-11 15:00:00 23.8 22 Sur 33 Sur 0 -- -- 17
2019-06-11 14:00:00 24.3 17 Sudoeste 36 Sur 0 -- -- 22
2019-06-11 13:00:00 22.2 11 Oeste 26 Oeste 0 -- -- 22
2019-06-11 12:00:00 23.1 17 Sudoeste 31 Sur 0 -- -- 17
2019-06-11 11:00:00 22.1 12 Sudeste 39 Nordeste 0 -- -- 19
2019-06-11 10:00:00 19 6 Sudoeste 13 Sur 0 -- -- 23
2019-06-11 09:00:00 16.9 3 Norte 28 Este 0 -- -- 26
2019-06-11 08:00:00 13.7 18 Este 32 Este 0 -- -- 33
2019-06-11 07:00:00 11.9 12 Este 25 Este 0 -- -- 39
2019-06-11 06:00:00 13.3 17 Este 35 Este 0 -- -- 39
2019-06-11 05:00:00 13.5 19 Este 36 Este 0 -- -- 39
2019-06-11 04:00:00 13.6 18 Este 29 Este 0 -- -- 39
2019-06-11 03:00:00 13.1 18 Este 35 Este 0 -- -- 41
2019-06-11 02:00:00 12.2 15 Este 36 Nordeste 0 -- -- 38
2019-06-11 01:00:00 13.8 17 Nordeste 43 Sudeste 0 -- -- 30
2019-06-11 00:00:00 14.4 28 Este 51 Este 0 -- -- 26
2019-06-10 23:00:00 14.6 22 Este 40 Este 0 -- -- 25
2019-06-10 22:00:00 14.7 24 Este 33 Este 0 -- -- 26
2019-06-10 21:00:00 16.8 12 Este 22 Sudeste 0 -- -- 22
2019-06-10 20:00:00 20.5 14 Este 30 Este 0 -- -- 20
2019-06-10 19:00:00 23.5 8 Sudoeste 30 Sudeste 0 -- -- 22
2019-06-10 18:00:00 22.6 22 Este 41 Sudeste 0 -- -- 12
2019-06-10 17:00:00 23 22 Sudeste 41 Sudeste 0 -- -- 13
2019-06-10 16:00:00 24 9 Sudeste 31 Sudoeste 0 -- -- 22
2019-06-10 15:00:00 23 15 Sudoeste 30 Sudoeste 0 -- -- 18
2019-06-10 14:00:00 22.5 10 Oeste 32 Sudoeste 0 -- -- 19
2019-06-10 13:00:00 22.5 13 Sudoeste 27 Sudoeste 0 -- -- 18
2019-06-10 12:00:00 22.2 12 Oeste 23 Oeste 0 -- -- 12
2019-06-10 11:00:00 20.8 14 Sudeste 24 Este 0 -- -- 7
2019-06-10 10:00:00 18.5 17 Este 22 Este 0 -- -- 6
2019-06-10 09:00:00 16.6 13 Este 19 Este 0 -- -- 5
2019-06-10 08:00:00 10.2 5 Norte 24 Este 0 -- -- 12
2019-06-10 07:00:00 10.3 7 Este 22 Nordeste 0 -- -- 16
2019-06-10 06:00:00 7.2 4 Nordeste 20 Nordeste 0 -- -- 28
2019-06-10 05:00:00 9.6 12 Este 27 Este 0 -- -- 25
2019-06-10 04:00:00 10 13 Este 20 Este 0 -- -- 25
2019-06-10 03:00:00 9.7 15 Este 22 Este 0 -- -- 28
2019-06-10 02:00:00 8.6 5 Nordeste 23 Este 0 -- -- 30
2019-06-10 01:00:00 11 13 Este 24 Este 0 -- -- 25
2019-06-10 00:00:00 11.3 17 Este 24 Este 0 -- -- 25
2019-06-09 23:00:00 11.9 11 Este 24 Este 0 -- -- 22
2019-06-09 22:00:00 12.4 18 Este 33 Este 0 -- -- 22
2019-06-09 21:00:00 13.8 21 Este 30 Este 0 -- -- 20
2019-06-09 20:00:00 18.6 20 Este 27 Este 0 -- -- 16
2019-06-09 19:00:00 20.8 10 Este 29 Sur 0 -- -- 20
2019-06-09 18:00:00 21.7 17 Sudoeste 42 Sudoeste 0 -- -- 19
2019-06-09 17:00:00 22 16 Este 29 Este 0 -- -- 13
2019-06-09 16:00:00 22.6 9 Sur 29 Oeste 0 -- -- 20
2019-06-09 15:00:00 23.2 13 Sudoeste 28 Oeste 0 -- -- 18
2019-06-09 14:00:00 22.5 12 Sudoeste 30 Sudeste 0 -- -- 19
2019-06-09 13:00:00 22.5 8 Sur 21 Sur 0 -- -- 15
2019-06-09 12:00:00 22 10 Sudoeste 21 Sudoeste 0 -- -- 16
2019-06-09 11:00:00 21.3 7 Sur 20 Este 0 -- -- 13
2019-06-09 10:00:00 18.8 8 Este 18 Este 0 -- -- 15
2019-06-09 09:00:00 16.2 10 Nordeste 15 Nordeste 0 -- -- 15
2019-06-09 08:00:00 11.4 2 Este 20 Este 0 -- -- 16
2019-06-09 07:00:00 9.6 4 Sudeste 21 Este 0 -- -- 21
2019-06-09 06:00:00 7.4 5 Nordeste 13 Este 0 -- -- 19
2019-06-09 05:00:00 7.2 8 Norte 14 Nordeste 0 -- -- 19
2019-06-09 04:00:00 8.5 3 Nordeste 14 Nordeste 0 -- -- 26
2019-06-09 03:00:00 8.3 9 Nordeste 14 Norte 0 -- -- 27
2019-06-09 02:00:00 9.3 8 Nordeste 11 Norte 0 -- -- 24
2019-06-09 01:00:00 9.2 6 Nordeste 16 Nordeste 0 -- -- 27
2019-06-09 00:00:00 9.5 0 Calma 15 Este 0 -- -- 25
2019-06-08 23:00:00 10.8 10 Nordeste 17 Este 0 -- -- 22
2019-06-08 22:00:00 13.2 10 Nordeste 17 Este 0 -- -- 21
2019-06-08 21:00:00 15.8 5 Sur 26 Sur 0 -- -- 20
2019-06-08 20:00:00 18.4 9 Sudoeste 30 Sur 0 -- -- 19
2019-06-08 19:00:00 19.6 16 Sudoeste 36 Sudoeste 0 -- -- 16
2019-06-08 18:00:00 20.5 12 Sudoeste 30 Oeste 0 -- -- 17
2019-06-08 17:00:00 20.2 14 Oeste 28 Oeste 0 -- -- 14
2019-06-08 16:00:00 20.3 14 Oeste 31 Oeste 0 -- -- 15
2019-06-08 15:00:00 20 12 Oeste 36 Oeste 0 -- -- 16
2019-06-08 14:00:00 20 14 Sudoeste 32 Sudoeste 0 -- -- 20
2019-06-08 13:00:00 19.8 9 Oeste 33 Sudoeste 0 -- -- 22
2019-06-08 12:00:00 18.6 11 Oeste 27 Sudoeste 0 -- -- 23
2019-06-08 11:00:00 17.6 11 Oeste 24 Sudoeste 0 -- -- 22
2019-06-08 10:00:00 15.4 9 Sudoeste 13 Sudoeste 0 -- -- 25
2019-06-08 09:00:00 13.8 6 Sur 9 Sur 0 -- -- 28
2019-06-08 08:00:00 7.6 4 Norte 9 Norte 0 -- -- 40
2019-06-08 07:00:00 5.5 3 Nordeste 11 Nordeste 0 -- -- 46
2019-06-08 06:00:00 6.5 5 Nordeste 12 Nordeste 0 -- -- 47
2019-06-08 05:00:00 5.6 2 Nordeste 8 Norte 0 -- -- 50
2019-06-08 04:00:00 7.6 0 Calma 8 Norte 0 -- -- 44
2019-06-08 03:00:00 7.9 0 Calma 5 Norte 0 -- -- 43
2019-06-08 02:00:00 8.6 3 Nordeste 5 Norte 0 -- -- 42
2019-06-08 01:00:00 8.2 3 Nordeste 8 Norte 0 -- -- 41
2019-06-08 00:00:00 8.6 5 Nordeste 6 Nordeste 0 -- -- 43
2019-06-07 23:00:00 9.9 0 Calma 5 Sudoeste 0 -- -- 45
2019-06-07 22:00:00 12.5 5 Sur 11 Oeste 0 -- -- 44
2019-06-07 21:00:00 13.9 6 Oeste 15 Oeste 0 -- -- 46
2019-06-07 20:00:00 16.5 10 Oeste 21 Oeste 0 -- -- 41
2019-06-07 19:00:00 18.4 10 Sudoeste 27 Sudoeste 0 -- -- 37
2019-06-07 18:00:00 18.2 11 Oeste 24 Oeste 0 -- -- 38
2019-06-07 17:00:00 19.9 14 Sudoeste 35 Sudoeste 0 -- -- 34
2019-06-07 16:00:00 18.3 12 Oeste 30 Noroeste 0 -- -- 34
2019-06-07 15:00:00 18.4 15 Oeste 28 Oeste 0 -- -- 29
2019-06-07 14:00:00 20 13 Oeste 26 Sudoeste 0 -- -- 22
2019-06-07 13:00:00 20.4 16 Sur 27 Sudoeste 0 -- -- 24
2019-06-07 12:00:00 20.2 9 Nordeste 24 Sudeste 0 -- -- 23
2019-06-07 11:00:00 18.3 8 Este 25 Sudeste 0 -- -- 25
2019-06-07 10:00:00 16.8 13 Este 22 Este 0 -- -- 29
2019-06-07 09:00:00 14 13 Este 20 Este 0 -- -- 32
2019-06-07 08:00:00 9.1 13 Nordeste 20 Este 0 -- -- 37
2019-06-07 07:00:00 6.6 4 Sudeste 24 Este 0 -- -- 36
2019-06-07 06:00:00 7.6 14 Este 23 Este 0 -- -- 58
2019-06-07 05:00:00 8.5 16 Este 26 Este 0 -- -- 47
2019-06-07 04:00:00 9 14 Nordeste 21 Nordeste 0 -- -- 34
2019-06-07 03:00:00 10.3 15 Este 24 Este 0 -- -- 5
2019-06-07 02:00:00 10.6 15 Este 22 Este 0 -- -- 2
2019-06-07 01:00:00 9.8 12 Este 18 Este 0 -- -- 3
2019-06-07 00:00:00 10.8 12 Nordeste 18 Este 0 -- -- 5
2019-06-06 23:00:00 12.7 5 Este 14 Este 0 -- -- 6
2019-06-06 22:00:00 13.4 5 Sudeste 20 Este 0 -- -- 12
2019-06-06 21:00:00 15.3 6 Sudoeste 14 Oeste 0 -- -- 13
2019-06-06 20:00:00 18.4 8 Oeste 19 Oeste 0 -- -- 12
2019-06-06 19:00:00 19.2 11 Oeste 29 Este 0 -- -- 16
2019-06-06 18:00:00 20.7 11 Este 38 Sur 0 -- -- 8
2019-06-06 17:00:00 21.2 17 Sudeste 31 Este 0 -- -- 9
2019-06-06 16:00:00 22.4 15 Este 31 Este 0 -- -- 8
2019-06-06 15:00:00 22.3 19 Este 31 Este 0 -- -- 8
2019-06-06 14:00:00 21.8 13 Oeste 24 Oeste 0 -- -- 17
2019-06-06 13:00:00 20.7 12 Oeste 24 Sudoeste 0 -- -- 17
2019-06-06 12:00:00 20 9 Oeste 23 Oeste 0 -- -- 14
2019-06-06 11:00:00 19.3 9 Sudeste 23 Este 0 -- -- 6
2019-06-06 10:00:00 17.7 10 Este 20 Este 0 -- -- 8
2019-06-06 09:00:00 15 9 Nordeste 15 Este 0 -- -- 9
2019-06-06 08:00:00 9.1 6 Nordeste 18 Este 0 -- -- 12
2019-06-06 07:00:00 6.9 5 Norte 22 Nordeste 0 -- -- 10
2019-06-06 06:00:00 9.3 17 Nordeste 23 Nordeste 0 -- -- 9
2019-06-06 05:00:00 9.4 11 Este 28 Nordeste 0 -- -- 11
2019-06-06 04:00:00 8.8 15 Este 21 Este 0 -- -- 16
2019-06-06 03:00:00 8.5 4 Norte 11 Nordeste 0 -- -- 16
2019-06-06 02:00:00 9.6 5 Norte 19 Este 0 -- -- 16
2019-06-06 01:00:00 9.8 5 Nordeste 16 Este 0 -- -- 15
2019-06-06 00:00:00 9.1 7 Nordeste 15 Nordeste 0 -- -- 15
2019-06-05 23:00:00 13 13 Este 22 Este 0 -- -- 11
2019-06-05 22:00:00 13.3 12 Este 23 Este 0 -- -- 12
2019-06-05 21:00:00 14.2 18 Este 25 Nordeste 0 -- -- 18
2019-06-05 20:00:00 19.7 10 Este 22 Oeste 0 -- -- 15
2019-06-05 19:00:00 18.8 13 Oeste 27 Sudeste 0 -- -- 27
2019-06-05 18:00:00 20.5 17 Sudeste 27 Este 0 -- -- 12
2019-06-05 17:00:00 19.8 10 Oeste 28 Sudoeste 0 -- -- 29
2019-06-05 16:00:00 20.2 11 Oeste 30 Sudoeste 0 -- -- 28
2019-06-05 15:00:00 20.1 16 Oeste 29 Oeste 0 -- -- 18
2019-06-05 14:00:00 19.6 14 Oeste 41 Sudoeste 0 -- -- 17
2019-06-05 13:00:00 20.2 28 Sudoeste 48 Sudoeste 0 -- -- 16
2019-06-05 12:00:00 19.3 29 Sur 54 Sur 0 -- -- 15
2019-06-05 11:00:00 19 23 Sur 50 Sur 0 -- -- 15
2019-06-05 10:00:00 17.5 9 Oeste 19 Sudoeste 0 -- -- 19
2019-06-05 09:00:00 15.7 5 Este 16 Nordeste 0 -- -- 23
2019-06-05 08:00:00 10.7 7 Este 17 Nordeste 0 -- -- 29
2019-06-05 07:00:00 7.7 3 Este 13 Norte 0 -- -- 36
2019-06-05 06:00:00 7.6 5 Nordeste 16 Nordeste 0 -- -- 37
2019-06-05 05:00:00 7.9 6 Nordeste 14 Este 0 -- -- 36
2019-06-05 04:00:00 9.7 10 Este 17 Este 0 -- -- 35
2019-06-05 03:00:00 11.7 12 Este 17 Este 0 -- -- 31
2019-06-05 02:00:00 9 2 Nordeste 9 Norte 0 -- -- 30
2019-06-05 01:00:00 10.3 5 Nordeste 15 Este 0 -- -- 29
2019-06-05 00:00:00 13 12 Este 20 Este 0 -- -- 25
2019-06-04 23:00:00 12 5 Nordeste 11 Este 0 -- -- 29
2019-06-04 22:00:00 14 7 Este 28 Este 0 -- -- 26
2019-06-04 21:00:00 16.4 6 Oeste 35 Oeste 0 -- -- 17
2019-06-04 20:00:00 17.5 17 Oeste 38 Oeste 0 -- -- 20
2019-06-04 19:00:00 18.1 18 Oeste 40 Noroeste 0 -- -- 22
2019-06-04 18:00:00 19.8 16 Noroeste 37 Oeste 0 -- -- 19
2019-06-04 17:00:00 19.9 19 Noroeste 43 Norte 0 -- -- 20
2019-06-04 16:00:00 19.8 21 Norte 37 Noroeste 0 -- -- 18
2019-06-04 15:00:00 20.7 17 Oeste 38 Oeste 0 -- -- 17
2019-06-04 14:00:00 21.1 14 Oeste 33 Sudoeste 0 -- -- 12
2019-06-04 13:00:00 20.4 11 Oeste 30 Oeste 0 -- -- 15
2019-06-04 12:00:00 19.9 14 Oeste 31 Oeste 0 -- -- 17
2019-06-04 11:00:00 19.7 14 Oeste 29 Oeste 0 -- -- 16
2019-06-04 10:00:00 19.1 8 Sudoeste 18 Sudoeste 0 -- -- 19
2019-06-04 09:00:00 17.2 3 Sur 8 Norte 0 -- -- 25
2019-06-04 08:00:00 12.5 3 Nordeste 13 Norte 0 -- -- 32
2019-06-04 07:00:00 9.4 5 Norte 10 Norte 0 -- -- 37
2019-06-04 06:00:00 9.9 2 Nordeste 12 Este 0 -- -- 34
2019-06-04 05:00:00 13.1 5 Este 20 Este 0 -- -- 29
2019-06-04 04:00:00 13.7 11 Este 17 Este 0 -- -- 29
2019-06-04 03:00:00 14.5 12 Este 26 Nordeste 0 -- -- 29
2019-06-04 02:00:00 15.4 17 Nordeste 28 Este 0 -- -- 27
2019-06-04 01:00:00 14.8 13 Este 25 Este 0 -- -- 25
2019-06-04 00:00:00 14.9 18 Este 27 Este 0 -- -- 25
2019-06-03 23:00:00 15.7 17 Este 30 Este 0 -- -- 24
2019-06-03 22:00:00 16 19 Este 31 Este 0 -- -- 23
2019-06-03 21:00:00 16.6 21 Nordeste 42 Nordeste 0 -- -- 22
2019-06-03 20:00:00 18.5 30 Nordeste 41 Nordeste 0 -- -- 19
2019-06-03 19:00:00 20.1 27 Nordeste 38 Nordeste 0 -- -- 17
2019-06-03 18:00:00 19.8 24 Nordeste 35 Nordeste 0 -- -- 17
2019-06-03 17:00:00 21.9 24 Nordeste 37 Nordeste 0 -- -- 19
2019-06-03 16:00:00 21.7 21 Norte 34 Norte 0 -- -- 21
2019-06-03 15:00:00 21.9 19 Norte 40 Nordeste 0 -- -- 21
2019-06-03 14:00:00 22.9 21 Este 47 Este 0 -- -- 21
2019-06-03 13:00:00 23 22 Nordeste 46 Este 0 -- -- 19
2019-06-03 12:00:00 22.1 25 Nordeste 45 Nordeste 0 -- -- 19
2019-06-03 11:00:00 21 30 Nordeste 43 Nordeste 0 -- -- 16
2019-06-03 10:00:00 19.9 27 Nordeste 41 Nordeste 0 -- -- 18
2019-06-03 09:00:00 18.1 26 Nordeste 36 Nordeste 0 -- -- 17
2019-06-03 08:00:00 15.3 21 Nordeste 29 Nordeste 0 -- -- 19
2019-06-03 07:00:00 13.5 17 Nordeste 26 Nordeste 0 -- -- 25
2019-06-03 06:00:00 14.3 17 Nordeste 29 Nordeste 0 -- -- 25
2019-06-03 05:00:00 14.6 21 Nordeste 31 Nordeste 0 -- -- 29
2019-06-03 04:00:00 14.2 18 Nordeste 28 Nordeste 0 -- -- 32
2019-06-03 03:00:00 15 21 Nordeste 31 Nordeste 0 -- -- 29
2019-06-03 02:00:00 14.7 20 Nordeste 30 Nordeste 0 -- -- 32
2019-06-03 01:00:00 15.5 23 Nordeste 31 Nordeste 0 -- -- 34
2019-06-03 00:00:00 14.8 17 Nordeste 29 Este 0 -- -- 33
2019-06-02 23:00:00 15.6 18 Nordeste 27 Este 0 -- -- 36
2019-06-02 22:00:00 16 11 Nordeste 21 Nordeste 0 -- -- 38
2019-06-02 21:00:00 17.7 11 Nordeste 18 Nordeste 0 -- -- 37
2019-06-02 20:00:00 19.4 7 Este 18 Sudeste 0 -- -- 28
2019-06-02 19:00:00 19.7 13 Este 37 Sudeste 0 -- -- 27
2019-06-02 18:00:00 23.3 14 Nordeste 43 Nordeste 0 -- -- 23
2019-06-02 17:00:00 23.6 20 Nordeste 37 Nordeste 0 -- -- 23
2019-06-02 16:00:00 22.8 16 Sudeste 42 Nordeste 0 -- -- 23
2019-06-02 15:00:00 23 15 Sudeste 38 Nordeste 0 -- -- 19
2019-06-02 14:00:00 23.3 22 Nordeste 40 Nordeste 0 -- -- 22
2019-06-02 13:00:00 22.5 14 Este 38 Nordeste 0 -- -- 23
2019-06-02 12:00:00 21.9 18 Este 42 Este 0 -- -- 23
2019-06-02 11:00:00 21.1 18 Nordeste 42 Nordeste 0 -- -- 24
2019-06-02 10:00:00 19.8 15 Nordeste 39 Nordeste 0 -- -- 26
2019-06-02 09:00:00 17.4 20 Nordeste 40 Nordeste 0 -- -- 30
2019-06-02 08:00:00 14.9 19 Nordeste 30 Este 0 -- -- 34
2019-06-02 07:00:00 13.2 19 Nordeste 37 Nordeste 0 -- -- 37
2019-06-02 06:00:00 13.9 20 Nordeste 33 Nordeste 0 -- -- 29
2019-06-02 05:00:00 13.3 18 Nordeste 23 Nordeste 0 -- -- 29
2019-06-02 04:00:00 13.2 14 Nordeste 20 Nordeste 0 -- -- 18
2019-06-02 03:00:00 13.5 13 Nordeste 20 Nordeste 0 -- -- 20
2019-06-02 02:00:00 13.7 14 Nordeste 19 Nordeste 0 -- -- 27
2019-06-02 01:00:00 14 13 Nordeste 17 Nordeste 0 -- -- 27
2019-06-02 00:00:00 14.3 10 Nordeste 17 Nordeste 0 -- -- 28
2019-06-01 23:00:00 15.1 12 Nordeste 16 Nordeste 0 -- -- 25
2019-06-01 22:00:00 16 10 Nordeste 16 Este 0 -- -- 24
2019-06-01 21:00:00 17.6 12 Este 21 Este 0 -- -- 23
2019-06-01 20:00:00 20 10 Sudeste 22 Sudeste 0 -- -- 24
2019-06-01 19:00:00 21.6 18 Sur 28 Sur 0 -- -- 25
2019-06-01 18:00:00 23.1 17 Sudoeste 35 Sudoeste 0 -- -- 26
2019-06-01 17:00:00 23 12 Sudoeste 29 Sudeste 0 -- -- 27
2019-06-01 16:00:00 24.2 10 Este 40 Este 0 -- -- 20
2019-06-01 15:00:00 24.1 15 Este 32 Este 0 -- -- 21
2019-06-01 14:00:00 23.4 14 Nordeste 32 Este 0 -- -- 22
2019-06-01 13:00:00 23.5 12 Este 34 Este 0 -- -- 21
2019-06-01 12:00:00 22.8 15 Sudeste 30 Este 0 -- -- 22
2019-06-01 11:00:00 22.1 16 Nordeste 33 Nordeste 0 -- -- 22
2019-06-01 10:00:00 20.5 15 Este 32 Este 0 -- -- 23
2019-06-01 09:00:00 18.6 16 Nordeste 30 Nordeste 0 -- -- 25
2019-06-01 08:00:00 14.8 14 Nordeste 23 Nordeste 0 -- -- 31
2019-06-01 07:00:00 13.8 14 Nordeste 20 Nordeste 0 -- -- 34
2019-06-01 06:00:00 13.5 17 Este 20 Este 0 -- -- 29
2019-06-01 05:00:00 14.2 16 Este 22 Este 0 -- -- 27
2019-06-01 04:00:00 14.2 14 Este 20 Este 0 -- -- 26
2019-06-01 03:00:00 14.1 15 Este 21 Este 0 -- -- 25
2019-06-01 02:00:00 14.4 14 Nordeste 19 Este 0 -- -- 27
2019-06-01 01:00:00 15.7 14 Nordeste 18 Nordeste 0 -- -- 26
2019-06-01 00:00:00 15.7 12 Nordeste 20 Nordeste 0 -- -- 25
2019-05-31 23:00:00 15.5 12 Nordeste 19 Nordeste 0 -- -- 23
2019-05-31 22:00:00 16.4 10 Nordeste 16 Nordeste 0 -- -- 22
2019-05-31 21:00:00 17.4 7 Este 25 Nordeste 0 -- -- 22
2019-05-31 20:00:00 20 15 Este 36 Este 0 -- -- 19
2019-05-31 19:00:00 21.2 16 Este 38 Este 0 -- -- 19
2019-05-31 18:00:00 22 17 Este 33 Este 0 -- -- 16
2019-05-31 17:00:00 22.6 17 Este 34 Este 0 -- -- 12
2019-05-31 16:00:00 22.5 20 Este 32 Este 0 -- -- 15
2019-05-31 15:00:00 23 17 Este 33 Este 0 -- -- 12
2019-05-31 14:00:00 22.3 19 Este 41 Este 0 -- -- 16
2019-05-31 13:00:00 21.5 17 Este 35 Este 0 -- -- 17
2019-05-31 12:00:00 21.4 18 Este 34 Este 0 -- -- 18
2019-05-31 11:00:00 20 18 Este 31 Este 0 -- -- 18
2019-05-31 10:00:00 19.2 14 Este 26 Este 0 -- -- 17
2019-05-31 09:00:00 18.1 12 Nordeste 18 Este 0 -- -- 14
2019-05-31 08:00:00 13.8 13 Este 15 Nordeste 0 -- -- 15
2019-05-31 07:00:00 10.4 9 Nordeste 12 Nordeste 0 -- -- 17
2019-05-31 06:00:00 9.9 8 Nordeste 13 Nordeste 0 -- -- 18
2019-05-31 05:00:00 10 9 Nordeste 12 Nordeste 0 -- -- 18
2019-05-31 04:00:00 9.3 8 Nordeste 14 Nordeste 0 -- -- 19
2019-05-31 03:00:00 11.1 11 Nordeste 14 Nordeste 0 -- -- 17
2019-05-31 02:00:00 11.9 5 Nordeste 14 Este 0 -- -- 17
2019-05-31 01:00:00 10 4 Nordeste 11 Norte 0 -- -- 16
2019-05-31 00:00:00 11.6 2 Nordeste 11 Nordeste 0 -- -- 15
2019-05-30 23:00:00 12.7 8 Nordeste 11 Norte 0 -- -- 14
2019-05-30 22:00:00 13.1 2 Norte 9 Noroeste 0 -- -- 13
2019-05-30 21:00:00 17.7 5 Noroeste 17 Noroeste 0 -- -- 22
2019-05-30 20:00:00 21.3 6 Sudoeste 27 Sur 0 -- -- 11
2019-05-30 19:00:00 21.6 17 Sur 31 Sur 0 -- -- 14
2019-05-30 18:00:00 21.7 21 Sur 30 Sur 0 -- -- 20
2019-05-30 17:00:00 22.5 18 Sur 30 Sur 0 -- -- 17
2019-05-30 16:00:00 23.2 17 Sur 30 Sur 0 -- -- 16
2019-05-30 15:00:00 23 19 Sur 35 Sur 0 -- -- 12
2019-05-30 14:00:00 23.4 18 Sur 34 Sur 0 -- -- 12
2019-05-30 13:00:00 23.1 20 Sudoeste 33 Sudoeste 0 -- -- 11
2019-05-30 12:00:00 22.8 14 Este 24 Este 0 -- -- 12
2019-05-30 11:00:00 22.1 15 Este 21 Nordeste 0 -- -- 10
2019-05-30 10:00:00 21.1 9 Este 16 Nordeste 0 -- -- 11
2019-05-30 09:00:00 16.9 9 Este 19 Nordeste 0 -- -- 14
2019-05-30 08:00:00 11 5 Norte 10 Norte 0 -- -- 17
2019-05-30 07:00:00 8.8 3 Este 12 Nordeste 0 -- -- 16
2019-05-30 06:00:00 9.2 9 Este 12 Este 0 -- -- 14
2019-05-30 05:00:00 10.1 3 Norte 10 Norte 0 -- -- 14
2019-05-30 04:00:00 10.1 4 Nordeste 10 Este 0 -- -- 16
2019-05-30 03:00:00 10.2 2 Norte 12 Norte 0 -- -- 23
2019-05-30 02:00:00 10.2 7 Nordeste 10 Nordeste 0 -- -- 33
2019-05-30 01:00:00 10.6 6 Nordeste 7 Nordeste 0 -- -- 32
2019-05-30 00:00:00 12.6 4 Norte 8 Norte 0 -- -- 33
2019-05-29 23:00:00 12.2 2 Nordeste 6 Sur 0 -- -- 34
2019-05-29 22:00:00 15.8 6 Sur 9 Nordeste 0 -- -- 37
2019-05-29 21:00:00 18 0 Calma 18 Oeste 0 -- -- 25
2019-05-29 20:00:00 20.4 11 Oeste 21 Oeste 0 -- -- 30
2019-05-29 19:00:00 22.3 9 Oeste 28 Sudoeste 0 -- -- 17
2019-05-29 18:00:00 23.1 16 Sur 30 Sur 0 -- -- 19
2019-05-29 17:00:00 23.6 19 Sur 26 Sur 0 -- -- 20
2019-05-29 16:00:00 23.7 15 Sur 32 Sur 0 -- -- 23
2019-05-29 15:00:00 24.2 15 Sur 26 Sudeste 0 -- -- 26
2019-05-29 14:00:00 23.9 11 Sur 23 Sur 0 -- -- 26
2019-05-29 13:00:00 23 15 Sur 36 Sudoeste 0 -- -- 24
2019-05-29 12:00:00 22.9 12 Sur 21 Sur 0 -- -- 18
2019-05-29 11:00:00 22.5 6 Este 17 Este 0 -- -- 6
2019-05-29 10:00:00 19.7 11 Este 18 Este 0 -- -- 6
2019-05-29 09:00:00 17.3 8 Este 18 Este 0 -- -- 7
2019-05-29 08:00:00 13.3 7 Este 18 Este 0 -- -- 9
2019-05-29 07:00:00 10.8 8 Este 16 Este 0 -- -- 12
2019-05-29 06:00:00 12.8 9 Este 21 Este 0 -- -- 11
2019-05-29 05:00:00 12.7 11 Este 17 Este 0 -- -- 8
2019-05-29 04:00:00 10.2 14 Este 19 Este 0 -- -- 18
2019-05-29 03:00:00 10.2 9 Nordeste 20 Este 0 -- -- 20
2019-05-29 02:00:00 11 12 Nordeste 19 Nordeste 0 -- -- 19
2019-05-29 01:00:00 11.1 9 Nordeste 14 Nordeste 0 -- -- 17
2019-05-29 00:00:00 10 6 Norte 19 Este 0 -- -- 20
2019-05-28 23:00:00 13.1 14 Este 22 Este 0 -- -- 15
2019-05-28 22:00:00 13.9 14 Este 21 Este 0 -- -- 23
2019-05-28 21:00:00 16.3 9 Este 16 Sudoeste 0 -- -- 23
2019-05-28 20:00:00 19.1 8 Sudoeste 26 Sur 0 -- -- 35
2019-05-28 19:00:00 19.8 11 Oeste 20 Oeste 0 -- -- 34
2019-05-28 18:00:00 20 12 Oeste 24 Sur 0 -- -- 35
2019-05-28 17:00:00 21.3 14 Sudoeste 28 Sur 0 -- -- 42
2019-05-28 16:00:00 21.2 16 Sur 27 Sudeste 0 -- -- 41
2019-05-28 15:00:00 22.2 18 Sur 33 Sur 0 -- -- 31
2019-05-28 14:00:00 21.1 12 Sur 29 Sudoeste 0 -- -- 33
2019-05-28 13:00:00 21.3 16 Oeste 31 Sudoeste 0 -- -- 30
2019-05-28 12:00:00 21.7 9 Este 24 Este 0 -- -- 11
2019-05-28 11:00:00 20.1 13 Sudeste 23 Este 0 -- -- 10
2019-05-28 10:00:00 17.9 11 Este 22 Este 0 -- -- 13
2019-05-28 09:00:00 15.2 13 Este 29 Este 0 -- -- 12
2019-05-28 08:00:00 12.8 23 Este 35 Este 0 -- -- 14
2019-05-28 07:00:00 11.4 20 Este 31 Este 0 -- -- 26
2019-05-28 06:00:00 6.9 10 Norte 14 Norte 0 -- -- 40
2019-05-28 05:00:00 7.5 2 Norte 12 Nordeste 0 -- -- 42
2019-05-28 04:00:00 8.5 4 Noroeste 10 Este 0 -- -- 38
2019-05-28 03:00:00 8.6 3 Norte 18 Este 0 -- -- 36
2019-05-28 02:00:00 10.7 14 Este 22 Este 0 -- -- 32
2019-05-28 01:00:00 12.2 8 Este 20 Este 0 -- -- 32
2019-05-28 00:00:00 12.6 10 Este 18 Este 0 -- -- 31
2019-05-27 23:00:00 13.2 10 Este 17 Este 0 -- -- 31
2019-05-27 22:00:00 13.4 11 Este 17 Nordeste 0 -- -- 31
2019-05-27 21:00:00 14.6 11 Nordeste 21 Este 0 -- -- 28
2019-05-27 20:00:00 16.9 16 Nordeste 27 Este 0 -- -- 25
2019-05-27 19:00:00 18.8 19 Nordeste 28 Este 0 -- -- 21
2019-05-27 18:00:00 20.1 13 Este 26 Nordeste 0 -- -- 20
2019-05-27 17:00:00 19.4 13 Este 33 Este 0 -- -- 23
2019-05-27 16:00:00 19.4 18 Este 35 Este 0 -- -- 20
2019-05-27 15:00:00 20 20 Este 35 Este 0 -- -- 20
2019-05-27 14:00:00 20 19 Este 34 Este 0 -- -- 20
2019-05-27 13:00:00 20.1 19 Nordeste 33 Este 0 -- -- 17
2019-05-27 12:00:00 19.7 15 Este 30 Este 0 -- -- 20
2019-05-27 11:00:00 19 18 Este 27 Este 0 -- -- 19
2019-05-27 10:00:00 17.9 17 Este 28 Este 0 -- -- 19
2019-05-27 09:00:00 15.2 18 Este 33 Este 0 -- -- 19
2019-05-27 08:00:00 13.7 23 Este 34 Este 0 -- -- 20
2019-05-27 07:00:00 13.6 18 Este 28 Este 0 -- -- 23
2019-05-27 06:00:00 13.4 13 Este 31 Este 0 -- -- 26
2019-05-27 05:00:00 13.2 18 Este 27 Este 0 -- -- 28
2019-05-27 04:00:00 12.8 12 Este 24 Este 0 -- -- 25
2019-05-27 03:00:00 12.4 15 Este 22 Este 0 -- -- 17
2019-05-27 02:00:00 9.6 5 Nordeste 12 Norte 0 -- -- 24
2019-05-27 01:00:00 9.9 6 Norte 12 Nordeste 0 -- -- 23
2019-05-27 00:00:00 13.2 10 Nordeste 23 Sudeste 0 -- -- 22
2019-05-26 23:00:00 14 14 Este 22 Este 0 -- -- 13
2019-05-26 22:00:00 13.7 11 Nordeste 15 Nordeste 0 -- -- 32
2019-05-26 21:00:00 16.1 5 Sudoeste 17 Oeste 0 -- -- 44
2019-05-26 20:00:00 18.4 11 Oeste 21 Oeste 0 -- -- 39
2019-05-26 19:00:00 20.2 12 Oeste 25 Sudoeste 0 -- -- 38
2019-05-26 18:00:00 21.9 10 Sudoeste 28 Oeste 0 -- -- 36
2019-05-26 17:00:00 21.1 14 Oeste 26 Oeste 0 -- -- 34
2019-05-26 16:00:00 22.3 10 Sur 26 Sudoeste 0 -- -- 33
2019-05-26 15:00:00 22 10 Oeste 30 Sudoeste 0 -- -- 32
2019-05-26 14:00:00 20.1 12 Oeste 27 Sudoeste 0 -- -- 30
2019-05-26 13:00:00 22.9 10 Sur 24 Sudeste 0 -- -- 21
2019-05-26 12:00:00 20.6 9 Oeste 18 Este 0 -- -- 19
2019-05-26 11:00:00 21.9 10 Este 21 Sudeste 0 -- -- 13
2019-05-26 10:00:00 19.3 14 Este 22 Este 0 -- -- 12
2019-05-26 09:00:00 17.3 14 Este 24 Este 0 -- -- 6
2019-05-26 08:00:00 14.4 13 Este 26 Este 0 -- -- 6
2019-05-26 07:00:00 13.1 12 Este 31 Este 0 -- -- 19
2019-05-26 06:00:00 13.5 19 Este 28 Este 0 -- -- 29
2019-05-26 05:00:00 9.5 6 Norte 21 Este 0 -- -- 30
2019-05-26 04:00:00 11.9 8 Este 17 Este 0 -- -- 28
2019-05-26 03:00:00 9.8 5 Norte 28 Este 0 -- -- 19
2019-05-26 02:00:00 14.4 20 Este 32 Este 0 -- -- 13
2019-05-26 01:00:00 14.6 18 Este 28 Este 0 -- -- 16
2019-05-26 00:00:00 14.1 12 Este 24 Este 0 -- -- 17